Time;durP1;ratioP1;P1;durP2;ratioP2;P2;SDS_P1;SDS_P2;PMS_P1;PMS_P2;Temp;Humidity;BMP_temperature;BMP_pressure;BME280_temperature;BME280_humidity;BME280_pressure;Samples;Min_cycle;Max_cycle;Signal;HPM_P1;HPM_P2
2023/09/03 00:00:31;;;;;;;8.85;4.78;;;;;;;15.87;100.00;93294.56;4961975;28;20407;-81
2023/09/03 00:02:57;;;;;;;8.85;5.20;;;;;;;15.93;100.00;93303.94;4992786;28;20057;-81
2023/09/03 00:05:23;;;;;;;8.35;5.20;;;;;;;15.94;100.00;93304.72;4995990;28;20030;-82
2023/09/03 00:07:51;;;;;;;10.25;5.10;;;;;;;15.92;100.00;93297.13;4993640;28;20057;-81
2023/09/03 00:10:17;;;;;;;10.55;5.63;;;;;;;15.93;100.00;93303.16;4989623;28;20473;-82
2023/09/03 00:12:43;;;;;;;9.50;5.57;;;;;;;15.94;100.00;93304.72;4995563;28;20031;-82
2023/09/03 00:15:09;;;;;;;13.77;5.22;;;;;;;15.93;100.00;93303.94;4997289;28;20070;-82
2023/09/03 00:17:34;;;;;;;11.13;5.63;;;;;;;15.93;100.00;93303.94;4996081;28;20093;-82
2023/09/03 00:20:00;;;;;;;9.55;5.00;;;;;;;15.90;100.00;93298.50;4976661;28;20026;-82
2023/09/03 00:22:25;;;;;;;8.73;5.25;;;;;;;15.91;100.00;93295.53;4996519;28;20042;-82
2023/09/03 00:24:51;;;;;;;8.35;4.90;;;;;;;15.91;100.00;93298.19;4975773;28;20026;-82
2023/09/03 00:27:17;;;;;;;10.73;4.80;;;;;;;15.89;100.00;93292.41;4996471;28;20113;-82
2023/09/03 00:29:42;;;;;;;10.18;5.32;;;;;;;15.89;100.00;93287.13;4994945;28;20038;-82
2023/09/03 00:32:08;;;;;;;9.23;5.25;;;;;;;15.86;100.00;93281.69;4977555;28;20054;-82
2023/09/03 00:34:33;;;;;;;9.80;5.55;;;;;;;15.85;100.00;93280.09;4996972;28;20050;-82
2023/09/03 00:36:59;;;;;;;8.30;5.03;;;;;;;15.81;100.00;93275.44;4996625;28;20045;-82
2023/09/03 00:39:25;;;;;;;10.18;4.90;;;;;;;15.80;100.00;93273.09;4979040;28;20046;-82
2023/09/03 00:41:50;;;;;;;11.70;4.88;;;;;;;15.78;100.00;93272.59;4993806;28;20034;-82
2023/09/03 00:44:16;;;;;;;7.47;4.70;;;;;;;15.78;100.00;93269.97;4994445;28;20515;-81
2023/09/03 00:46:43;;;;;;;9.65;4.70;;;;;;;15.75;100.00;93271.34;4978897;28;20038;-81
2023/09/03 00:49:11;;;;;;;9.63;4.97;;;;;;;15.77;100.00;93279.75;4983858;28;20070;-81
2023/09/03 00:51:38;;;;;;;8.93;5.25;;;;;;;15.74;100.00;93276.94;4992334;28;20046;-82
2023/09/03 00:54:05;;;;;;;8.70;4.95;;;;;;;15.71;100.00;93280.16;5005076;28;20042;-82
2023/09/03 00:56:32;;;;;;;9.43;5.30;;;;;;;15.70;100.00;93283.88;4977340;28;20034;-82
2023/09/03 00:58:59;;;;;;;11.27;5.10;;;;;;;15.72;100.00;93289.66;4992629;28;20025;-82
2023/09/03 01:01:27;;;;;;;10.27;5.07;;;;;;;15.71;100.00;93286.22;4995461;28;20101;-82
2023/09/03 01:03:53;;;;;;;9.75;4.90;;;;;;;15.78;100.00;93280.53;4995315;28;20527;-82
2023/09/03 01:06:20;;;;;;;8.88;4.65;;;;;;;15.84;100.00;93275.91;4980511;28;20053;-82
2023/09/03 01:08:45;;;;;;;10.00;4.78;;;;;;;15.90;100.00;93272.88;4995340;28;20022;-82
2023/09/03 01:11:23;;;;;;;12.43;4.95;;;;;;;15.95;100.00;93275.38;4995394;28;20030;-82
2023/09/03 01:14:20;;;;;;;11.88;4.95;;;;;;;15.98;100.00;93280.06;4993837;28;20026;-82
2023/09/03 01:16:58;;;;;;;9.02;5.03;;;;;;;15.96;100.00;93281.44;4983654;28;20061;-82
2023/09/03 01:19:51;;;;;;;9.48;4.60;;;;;;;15.91;100.00;93282.34;4984808;28;20295;-82
2023/09/03 01:22:16;;;;;;;11.52;4.80;;;;;;;15.88;100.00;93277.66;4994103;28;20038;-81
2023/09/03 01:25:09;;;;;;;6.95;4.30;;;;;;;15.88;100.00;93277.66;4978242;28;20085;-82
2023/09/03 01:27:54;;;;;;;8.30;4.40;;;;;;;15.91;100.00;93284.19;4979196;28;20057;-82
2023/09/03 01:30:19;;;;;;;9.55;4.53;;;;;;;15.94;100.00;93287.03;4998488;28;20026;-81
2023/09/03 01:32:47;;;;;;;8.80;4.82;;;;;;;15.98;100.00;93290.63;4981466;28;20051;-81
2023/09/03 01:35:13;;;;;;;7.68;4.20;;;;;;;16.00;100.00;93291.09;4997111;28;20054;-81
2023/09/03 01:37:39;;;;;;;8.68;4.80;;;;;;;16.02;100.00;93293.44;4999642;28;20038;-82
2023/09/03 01:40:05;;;;;;;7.53;4.35;;;;;;;16.01;100.00;93295.31;4981611;28;20042;-82
2023/09/03 01:42:30;;;;;;;8.82;4.63;;;;;;;15.92;100.00;93297.13;4990407;28;20038;-81
2023/09/03 01:44:56;;;;;;;8.75;4.93;;;;;;;15.86;100.00;93297.53;4981639;28;20112;-81
2023/09/03 01:48:02;;;;;;;11.48;4.82;;;;;;;15.79;100.00;93293.44;4996253;28;20144;-81
2023/09/03 01:50:46;;;;;;;7.60;4.43;;;;;;;15.73;100.00;93291.19;4955252;28;20905;-81
2023/09/03 01:53:22;;;;;;;7.18;4.45;;;;;;;15.67;100.00;93281.78;4981161;28;20111;-81
2023/09/03 01:55:54;;;;;;;11.50;4.90;;;;;;;15.65;100.00;93268.91;4983975;28;20053;-81
2023/09/03 01:58:22;;;;;;;9.18;4.57;;;;;;;15.57;100.00;93264.34;4981563;28;20053;-81
2023/09/03 02:00:49;;;;;;;8.95;4.40;;;;;;;15.56;100.00;93271.47;4964285;28;20033;-82
2023/09/03 02:03:16;;;;;;;10.25;4.68;;;;;;;15.54;100.00;93265.72;4979332;28;20397;-83
2023/09/03 02:05:41;;;;;;;7.03;4.47;;;;;;;15.49;100.00;93267.66;4954284;28;20045;-83
2023/09/03 02:08:07;;;;;;;9.23;4.70;;;;;;;15.43;100.00;93269.66;4965174;28;20252;-81
2023/09/03 02:10:33;;;;;;;9.18;4.65;;;;;;;15.39;100.00;93260.75;4979999;28;20039;-83
2023/09/03 02:12:59;;;;;;;7.50;4.40;;;;;;;15.35;100.00;93257.16;4992657;28;20499;-82
2023/09/03 02:15:24;;;;;;;10.43;4.60;;;;;;;15.35;100.00;93263.19;4977994;28;20034;-82
2023/09/03 02:17:50;;;;;;;8.48;4.90;;;;;;;15.32;100.00;93265.66;4977273;28;20045;-83
2023/09/03 02:20:16;;;;;;;10.93;4.95;;;;;;;15.30;100.00;93267.81;4981539;28;20046;-82
2023/09/03 02:22:42;;;;;;;10.40;4.97;;;;;;;15.26;100.00;93266.84;4967249;28;20421;-83
2023/09/03 02:25:10;;;;;;;8.18;4.45;;;;;;;15.24;100.00;93266.34;4966508;28;20030;-83
2023/09/03 02:27:35;;;;;;;9.43;5.30;;;;;;;15.25;100.00;93265.28;4963475;28;20504;-83
2023/09/03 02:30:01;;;;;;;11.07;5.22;;;;;;;15.23;100.00;93264.81;4987042;28;20089;-82
2023/09/03 02:32:26;;;;;;;7.65;5.00;;;;;;;15.20;100.00;93261.69;4985848;28;20412;-83
2023/09/03 02:34:52;;;;;;;7.53;4.80;;;;;;;15.19;100.00;93275.94;4962447;28;20026;-83
2023/09/03 02:37:18;;;;;;;8.18;5.00;;;;;;;15.18;100.00;93266.47;4977831;28;20039;-83
2023/09/03 02:39:44;;;;;;;10.35;5.70;;;;;;;15.16;100.00;93271.25;4984840;28;20049;-82
2023/09/03 02:42:09;;;;;;;9.45;5.50;;;;;;;15.16;100.00;93270.47;4968784;28;20043;-82
2023/09/03 02:44:35;;;;;;;11.00;4.43;;;;;;;15.13;100.00;93277.13;4975907;28;20041;-82
2023/09/03 02:47:00;;;;;;;8.15;4.45;;;;;;;15.12;100.00;93270.28;4986873;28;20038;-82
2023/09/03 02:49:26;;;;;;;7.75;4.75;;;;;;;15.12;100.00;93275.56;4982445;28;20148;-82
2023/09/03 02:51:52;;;;;;;14.93;5.40;;;;;;;15.11;100.00;93274.00;4996687;28;20042;-82
2023/09/03 02:54:18;;;;;;;8.45;5.22;;;;;;;15.12;100.00;93275.56;4961521;28;20034;-82
2023/09/03 02:56:44;;;;;;;11.40;5.00;;;;;;;15.14;100.00;93270.00;4981063;28;20117;-83
2023/09/03 02:59:10;;;;;;;10.20;4.60;;;;;;;15.15;100.00;93261.78;4966121;28;20372;-82
2023/09/03 03:01:35;;;;;;;12.18;5.03;;;;;;;15.13;100.00;93261.31;4996264;28;20041;-83
2023/09/03 03:04:01;;;;;;;13.68;4.82;;;;;;;15.11;100.00;93268.72;4962421;28;20029;-82
2023/09/03 03:06:27;;;;;;;7.65;5.32;;;;;;;15.09;100.00;93272.75;4980315;28;20050;-82
2023/09/03 03:08:52;;;;;;;9.50;5.00;;;;;;;15.04;100.00;93273.63;4979684;28;20129;-83
2023/09/03 03:11:18;;;;;;;7.63;5.30;;;;;;;15.06;100.00;93276.72;5003138;28;20034;-83
2023/09/03 03:13:52;;;;;;;12.68;5.60;;;;;;;15.05;100.00;93275.16;4984621;28;20058;-83
2023/09/03 03:16:20;;;;;;;9.93;5.43;;;;;;;15.06;100.00;93265.41;4959638;28;20076;-82
2023/09/03 03:18:50;;;;;;;8.00;4.57;;;;;;;15.07;100.00;93275.66;4984765;28;20104;-83
2023/09/03 03:21:19;;;;;;;8.55;4.95;;;;;;;15.05;100.00;93269.91;4970115;28;20077;-82
2023/09/03 03:23:50;;;;;;;11.20;5.00;;;;;;;15.07;100.00;93275.66;4980839;28;20068;-82
2023/09/03 03:26:19;;;;;;;8.90;5.13;;;;;;;15.07;100.00;93282.78;4986536;28;20042;-83
2023/09/03 03:28:44;;;;;;;9.05;4.80;;;;;;;15.07;100.00;93274.88;4984873;28;20404;-83
2023/09/03 03:31:16;;;;;;;10.40;4.82;;;;;;;15.07;100.00;93283.56;4989265;28;20034;-82
2023/09/03 03:33:47;;;;;;;9.60;5.28;;;;;;;15.06;100.00;93283.84;4982001;28;20494;-82
2023/09/03 03:36:15;;;;;;;10.52;4.85;;;;;;;15.06;100.00;93283.84;4981629;28;20029;-83
2023/09/03 03:38:41;;;;;;;9.93;5.15;;;;;;;15.02;100.00;93281.03;4982288;28;20022;-83
2023/09/03 03:41:09;;;;;;;8.45;5.20;;;;;;;15.05;100.00;93290.22;4976104;28;20042;-81
2023/09/03 03:43:39;;;;;;;7.90;5.40;;;;;;;15.01;100.00;93295.28;4977656;28;20041;-81
2023/09/03 03:46:06;;;;;;;10.57;5.57;;;;;;;14.97;100.00;93289.03;4978148;28;20036;-81
2023/09/03 03:48:35;;;;;;;10.10;5.80;;;;;;;14.93;100.00;93288.84;4996447;28;20054;-82
2023/09/03 03:51:02;;;;;;;11.32;5.72;;;;;;;14.93;100.00;93293.34;4994815;28;20026;-81
2023/09/03 03:53:31;;;;;;;9.32;5.78;;;;;;;14.91;100.00;93285.72;4996370;28;20037;-81
2023/09/03 03:56:01;;;;;;;12.13;5.28;;;;;;;14.90;100.00;93288.66;4982708;28;20034;-82
2023/09/03 03:58:32;;;;;;;11.27;5.65;;;;;;;14.88;100.00;93285.53;4966029;28;20042;-81
2023/09/03 04:00:58;;;;;;;10.55;5.50;;;;;;;14.89;100.00;93279.19;4976541;28;20062;-82
2023/09/03 04:03:28;;;;;;;14.98;5.70;;;;;;;14.89;100.00;93271.28;4994121;28;20465;-82
2023/09/03 04:06:02;;;;;;;9.48;4.97;;;;;;;14.89;100.00;93274.69;4974734;28;20038;-83
2023/09/03 04:08:31;;;;;;;6.90;4.93;;;;;;;14.87;100.00;93268.16;4974330;28;20129;-82
2023/09/03 04:11:08;;;;;;;8.77;5.22;;;;;;;14.90;100.00;93267.56;4979800;28;20030;-82
2023/09/03 04:13:34;;;;;;;9.07;4.70;;;;;;;14.90;100.00;93268.34;4989510;28;20033;-82
2023/09/03 04:16:04;;;;;;;16.17;5.78;;;;;;;14.89;100.00;93273.91;4977333;28;20034;-83
2023/09/03 04:18:31;;;;;;;7.43;4.78;;;;;;;14.92;100.00;93286.50;4979859;28;20038;-83
2023/09/03 04:20:57;;;;;;;7.90;5.05;;;;;;;14.89;100.00;93289.72;4998616;28;20030;-82
2023/09/03 04:23:25;;;;;;;8.82;5.18;;;;;;;14.87;100.00;93291.88;4966711;28;20038;-82
2023/09/03 04:25:51;;;;;;;9.30;4.93;;;;;;;14.84;100.00;93289.81;4960569;28;20406;-83
2023/09/03 04:28:21;;;;;;;7.53;4.85;;;;;;;14.78;100.00;93286.50;4979583;28;20102;-82
2023/09/03 04:30:52;;;;;;;8.73;4.90;;;;;;;14.77;100.00;93291.00;4977102;28;20030;-82
2023/09/03 04:33:17;;;;;;;10.82;5.15;;;;;;;14.77;100.00;93295.47;4979252;28;20035;-82
2023/09/03 04:35:43;;;;;;;8.50;5.30;;;;;;;14.75;100.00;93297.63;4991775;28;20054;-82
2023/09/03 04:38:09;;;;;;;9.52;5.40;;;;;;;14.70;100.00;93295.88;4989810;28;20038;-82
2023/09/03 04:40:36;;;;;;;10.88;4.97;;;;;;;14.73;100.00;93297.16;4994033;28;20037;-82
2023/09/03 04:43:04;;;;;;;9.95;4.85;;;;;;;14.72;100.00;93296.34;4974839;28;20034;-82
2023/09/03 04:45:31;;;;;;;8.10;5.20;;;;;;;14.71;100.00;93289.53;4982522;28;20034;-83
2023/09/03 04:47:58;;;;;;;8.20;5.25;;;;;;;14.74;100.00;93286.28;4972470;28;20042;-82
2023/09/03 04:50:28;;;;;;;10.63;5.43;;;;;;;14.74;100.00;93290.78;4976272;28;20038;-82
2023/09/03 04:52:57;;;;;;;8.85;5.03;;;;;;;14.76;100.00;93296.56;4977681;28;20042;-82
2023/09/03 04:55:23;;;;;;;8.57;5.43;;;;;;;14.78;100.00;93300.44;4977617;28;20038;-83
2023/09/03 04:57:50;;;;;;;11.63;5.05;;;;;;;14.82;100.00;93307.78;4975798;28;20507;-82
2023/09/03 05:00:19;;;;;;;10.07;5.22;;;;;;;14.84;100.00;93300.34;4973603;28;20450;-81
2023/09/03 05:02:46;;;;;;;8.27;4.95;;;;;;;14.85;100.00;93307.19;4962109;28;20041;-82
2023/09/03 05:05:11;;;;;;;7.93;4.53;;;;;;;14.83;100.00;93299.56;4960320;28;20065;-82
2023/09/03 05:07:38;;;;;;;8.52;4.55;;;;;;;14.86;100.00;93304.28;4987173;28;20026;-83
2023/09/03 05:10:03;;;;;;;7.15;4.50;;;;;;;14.89;100.00;93302.91;4982012;28;20354;-82
2023/09/03 05:12:30;;;;;;;9.05;4.78;;;;;;;14.94;100.00;93308.09;4963558;28;20104;-82
2023/09/03 05:14:55;;;;;;;7.55;4.90;;;;;;;14.97;100.00;93318.84;5007262;28;20544;-82
2023/09/03 05:17:21;;;;;;;6.55;4.18;;;;;;;15.03;100.00;93324.00;4999629;28;20038;-82
2023/09/03 05:19:48;;;;;;;11.65;4.85;;;;;;;15.11;100.00;93321.47;4973438;28;20030;-82
2023/09/03 05:22:14;;;;;;;12.02;5.28;;;;;;;15.23;100.00;93328.88;4966425;28;20377;-83
2023/09/03 05:24:40;;;;;;;7.43;4.57;;;;;;;15.35;100.00;93323.09;5001583;28;20037;-82
2023/09/03 05:27:05;;;;;;;7.88;4.50;;;;;;;15.45;100.00;93320.28;4981219;28;20050;-83
2023/09/03 05:29:31;;;;;;;9.05;4.72;;;;;;;15.54;100.00;93307.16;4987499;28;20034;-83
2023/09/03 05:31:57;;;;;;;6.95;4.50;;;;;;;15.65;100.00;93307.69;4986318;28;20092;-82
2023/09/03 05:34:23;;;;;;;8.45;4.40;;;;;;;15.78;100.00;93299.81;4986045;28;20037;-82
2023/09/03 05:36:49;;;;;;;10.45;4.65;;;;;;;16.00;100.00;93298.25;4985795;28;20038;-83
2023/09/03 05:39:15;;;;;;;8.02;4.32;;;;;;;16.28;100.00;93293.63;4981042;28;20030;-82
2023/09/03 05:41:42;;;;;;;7.60;4.68;;;;;;;16.47;100.00;93293.44;4979842;28;20053;-82
2023/09/03 05:44:09;;;;;;;7.80;4.15;;;;;;;16.59;100.00;93287.56;4979414;28;20038;-82
2023/09/03 05:46:37;;;;;;;7.10;4.10;;;;;;;16.70;100.00;93282.81;4980585;28;20361;-82
2023/09/03 05:49:02;;;;;;;10.50;4.65;;;;;;;16.79;100.00;93281.78;4984133;28;20042;-82
2023/09/03 05:51:29;;;;;;;8.82;4.00;;;;;;;16.93;100.00;93276.41;4981849;28;20089;-82
2023/09/03 05:53:56;;;;;;;7.25;4.22;;;;;;;17.12;100.00;93286.72;4983188;28;20049;-83
2023/09/03 05:56:23;;;;;;;6.50;4.07;;;;;;;17.26;100.00;93284.75;4986313;28;20489;-83
2023/09/03 05:58:50;;;;;;;7.53;4.50;;;;;;;17.42;100.00;93285.06;4961506;28;20034;-84
2023/09/03 06:01:16;;;;;;;8.48;4.35;;;;;;;17.55;100.00;93285.28;4989287;28;20038;-84
2023/09/03 06:03:42;;;;;;;6.78;4.18;;;;;;;17.70;100.00;93292.78;4963302;28;20030;-83
2023/09/03 06:06:14;;;;;;;7.75;4.28;;;;;;;17.91;100.00;93290.31;4994982;28;20034;-84
2023/09/03 06:09:01;;;;;;;7.60;3.88;;;;;;;18.19;100.00;93282.03;4984848;28;20043;-84
2023/09/03 06:11:33;;;;;;;8.38;3.80;;;;;;;18.75;100.00;93290.78;4999111;28;20049;-83
2023/09/03 06:14:01;;;;;;;8.25;4.47;;;;;;;19.48;100.00;93287.22;4984693;28;20089;-86
2023/09/03 06:16:27;;;;;;;6.95;4.00;;;;;;;20.12;100.00;93286.16;4981894;28;20031;-84
2023/09/03 06:18:53;;;;;;;9.65;4.13;;;;;;;20.66;100.00;93286.13;4998597;28;20022;-85
2023/09/03 06:21:19;;;;;;;9.02;3.80;;;;;;;21.20;100.00;93283.31;4982994;28;20026;-84
2023/09/03 06:23:45;;;;;;;7.60;3.75;;;;;;;21.75;100.00;93280.41;4979592;28;20396;-84
2023/09/03 06:26:11;;;;;;;5.60;3.70;;;;;;;22.28;100.00;93280.38;4965897;28;20037;-82
2023/09/03 06:28:36;;;;;;;7.93;3.75;;;;;;;22.60;100.00;93287.34;4998230;28;20034;-81
2023/09/03 06:31:08;;;;;;;7.38;3.90;;;;;;;22.71;100.00;93295.63;4965544;28;20042;-84
2023/09/03 06:33:36;;;;;;;6.18;3.60;;;;;;;22.24;100.00;93297.06;4989545;28;20037;-86
2023/09/03 06:36:01;;;;;;;8.07;3.97;;;;;;;21.89;100.00;93301.38;4985198;28;20066;-85
2023/09/03 06:38:27;;;;;;;7.60;3.80;;;;;;;21.97;100.00;93298.56;4988440;28;20088;-84
2023/09/03 06:40:53;;;;;;;5.95;3.55;;;;;;;22.22;100.00;93299.31;5001885;28;20058;-83
2023/09/03 06:43:18;;;;;;;9.60;3.47;;;;;;;22.27;100.00;93303.63;4999531;28;20057;-83
2023/09/03 06:45:45;;;;;;;10.32;3.90;;;;;;;22.52;100.00;93314.97;4984115;28;20038;-84
2023/09/03 06:48:10;;;;;;;7.93;3.60;;;;;;;22.80;100.00;93327.50;4986929;28;20129;-83
2023/09/03 06:50:36;;;;;;;6.72;3.80;;;;;;;22.89;100.00;93322.75;4945428;28;20057;-84
2023/09/03 06:53:41;;;;;;;7.53;3.65;;;;;;;22.76;100.00;93326.63;4963020;28;20043;-85
2023/09/03 07:00:05;;;;;;;6.00;3.80;;;;;;;22.63;100.00;93323.25;4980332;28;20050;-83
2023/09/03 07:02:31;;;;;;;9.25;4.03;;;;;;;22.64;100.00;93320.22;4977519;28;20409;-84
2023/09/03 07:04:59;;;;;;;8.77;3.80;;;;;;;22.71;100.00;93332.22;4969248;28;20053;-84
2023/09/03 07:07:26;;;;;;;7.95;3.90;;;;;;;22.57;100.00;93343.28;4977392;28;20417;-83
2023/09/03 07:09:52;;;;;;;5.38;3.60;;;;;;;22.52;100.00;93344.31;4958147;28;20082;-84
2023/09/03 07:12:17;;;;;;;7.75;4.20;;;;;;;22.43;100.00;93346.34;4954811;28;20059;-83
2023/09/03 07:14:43;;;;;;;6.50;3.85;;;;;;;22.48;100.00;93338.09;4973886;28;20026;-84
2023/09/03 07:17:15;;;;;;;7.88;3.95;;;;;;;22.31;100.00;93341.03;4976702;28;20050;-83
2023/09/03 07:19:49;;;;;;;7.70;4.10;;;;;;;21.98;100.00;93350.00;4957071;28;20035;-83
2023/09/03 07:22:14;;;;;;;8.57;3.95;;;;;;;21.79;100.00;93355.88;4961855;28;20404;-83
2023/09/03 07:24:40;;;;;;;8.20;4.07;;;;;;;21.47;100.00;93352.25;4945160;28;20019;-83
2023/09/03 07:27:08;;;;;;;6.65;3.80;;;;;;;21.38;100.00;93353.09;4960328;28;20452;-84
2023/09/03 07:30:22;;;;;;;6.68;3.65;;;;;;;21.57;100.00;93349.94;4980183;28;20030;-84
2023/09/03 07:33:09;;;;;;;8.85;3.90;;;;;;;21.38;100.00;93353.09;4980029;28;20519;-83
2023/09/03 07:35:35;;;;;;;6.68;3.90;;;;;;;21.46;100.00;93350.69;4978555;28;20035;-83
2023/09/03 07:38:04;;;;;;;8.30;4.38;;;;;;;21.62;100.00;93356.91;4945969;28;20038;-83
2023/09/03 07:40:30;;;;;;;11.02;4.18;;;;;;;21.87;100.00;93356.91;4978185;28;20039;-83
2023/09/03 07:42:56;;;;;;;6.40;3.80;;;;;;;22.05;100.00;93366.19;4959857;28;20081;-83
2023/09/03 07:45:21;;;;;;;6.80;4.00;;;;;;;22.18;100.00;93365.06;4977057;28;20046;-84
2023/09/03 07:47:47;;;;;;;5.82;4.00;;;;;;;22.11;100.00;93356.06;4985530;28;20045;-83
2023/09/03 07:50:12;;;;;;;8.18;4.25;;;;;;;21.71;100.00;93359.47;4992917;28;20034;-82
2023/09/03 07:52:38;;;;;;;11.05;4.40;;;;;;;21.42;100.00;93348.69;5004323;28;20014;-83
2023/09/03 07:55:04;;;;;;;6.90;4.28;;;;;;;21.45;100.00;93357.13;5011251;28;20046;-82
2023/09/03 07:57:32;;;;;;;8.63;3.88;;;;;;;21.62;100.00;93356.91;4995221;28;20045;-80
2023/09/03 07:59:57;;;;;;;6.32;3.95;;;;;;;21.74;100.00;93351.56;5013587;28;20038;-80
2023/09/03 08:02:29;;;;;;;6.07;3.85;;;;;;;21.63;100.00;93356.56;4998655;28;20054;-84
2023/09/03 08:04:55;;;;;;;6.35;3.88;;;;;;;21.66;100.00;93363.13;4998481;28;20044;-82
2023/09/03 08:07:24;;;;;;;8.13;4.80;;;;;;;21.66;100.00;93370.34;4979856;28;20042;-84
2023/09/03 08:09:50;;;;;;;7.38;4.22;;;;;;;21.50;100.00;93376.31;4980767;28;20055;-81
2023/09/03 08:12:16;;;;;;;7.10;4.10;;;;;;;21.47;100.00;93376.22;4979730;28;20109;-82
2023/09/03 08:14:43;;;;;;;7.47;4.40;;;;;;;21.76;100.00;93368.00;4998432;28;20071;-83
2023/09/03 08:17:15;;;;;;;8.38;4.50;;;;;;;22.01;100.00;93376.75;4982112;28;20062;-83
2023/09/03 08:19:57;;;;;;;9.50;4.37;;;;;;;22.15;100.00;93372.94;4998777;28;20038;-83
2023/09/03 08:22:23;;;;;;;9.00;4.45;;;;;;;21.95;100.00;93374.63;4981496;28;20288;-82
2023/09/03 08:24:49;;;;;;;9.13;4.13;;;;;;;21.96;100.00;93376.97;4998618;28;20121;-83
2023/09/03 08:27:15;;;;;;;8.85;4.00;;;;;;;21.99;100.00;93364.88;4997461;28;20058;-81
2023/09/03 08:29:40;;;;;;;7.47;4.30;;;;;;;21.93;100.00;93366.19;4996672;28;20037;-82
2023/09/03 08:32:06;;;;;;;7.43;4.22;;;;;;;22.15;100.00;93356.94;4996087;28;20042;-82
2023/09/03 08:34:34;;;;;;;8.48;4.00;;;;;;;22.28;100.00;93357.72;4996768;28;20034;-82
2023/09/03 08:37:00;;;;;;;6.90;3.90;;;;;;;22.38;100.00;93365.22;4997211;28;20121;-83
2023/09/03 08:39:25;;;;;;;11.10;4.20;;;;;;;22.49;100.00;93363.63;4996552;28;20029;-82
2023/09/03 08:41:52;;;;;;;7.07;3.85;;;;;;;22.75;100.00;93362.44;4997805;28;20049;-83
2023/09/03 08:45:01;;;;;;;6.70;3.95;;;;;;;22.44;100.00;93369.22;5000589;28;20038;-83
2023/09/03 08:48:06;;;;;;;6.15;3.97;;;;;;;22.37;100.00;93371.69;5001305;28;20047;-84
2023/09/03 08:50:35;;;;;;;8.57;4.40;;;;;;;22.34;100.00;93369.72;4982808;28;20381;-83
2023/09/03 08:56:59;;;;;;;8.10;4.80;;;;;;;22.12;100.00;93376.28;4983672;28;20034;-84
2023/09/03 08:59:25;;;;;;;7.93;4.10;;;;;;;22.13;100.00;93380.50;4958998;28;20099;-84
2023/09/03 09:01:53;;;;;;;8.52;4.22;;;;;;;22.41;100.00;93380.59;4950587;28;20031;-82
2023/09/03 09:04:20;;;;;;;7.40;4.00;;;;;;;22.61;100.00;93382.28;4981082;28;20038;-81
2023/09/03 09:06:46;;;;;;;8.43;4.13;;;;;;;22.92;100.00;93378.16;4980222;28;20123;-83
2023/09/03 09:09:14;;;;;;;8.18;4.03;;;;;;;23.03;100.00;93381.13;4962905;28;20114;-83
2023/09/03 09:11:45;;;;;;;7.68;3.90;;;;;;;23.05;100.00;93381.53;4981023;28;20035;-83
2023/09/03 09:14:27;;;;;;;8.77;4.47;;;;;;;22.91;100.00;93384.59;4964621;28;20063;-83
2023/09/03 09:16:52;;;;;;;8.45;4.07;;;;;;;22.76;100.00;93374.66;4981041;28;20400;-80
2023/09/03 09:19:18;;;;;;;8.52;4.00;;;;;;;22.80;100.00;93375.53;4981371;28;20027;-82
2023/09/03 09:21:44;;;;;;;7.32;4.40;;;;;;;22.77;100.00;93382.34;4979759;28;20087;-82
2023/09/03 09:24:11;;;;;;;8.55;4.00;;;;;;;22.94;100.00;93381.25;4981278;28;20432;-83
2023/09/03 09:26:38;;;;;;;7.70;4.38;;;;;;;22.90;100.00;93372.38;4976566;28;20484;-82
2023/09/03 09:29:04;;;;;;;5.43;3.67;;;;;;;22.87;100.00;93371.16;4979526;28;20395;-82
2023/09/03 09:31:34;;;;;;;7.60;3.97;;;;;;;22.80;100.00;93375.53;4980127;28;20039;-82
2023/09/03 09:34:02;;;;;;;7.85;4.00;;;;;;;22.67;100.00;93364.13;4979446;28;20058;-81
2023/09/03 09:36:30;;;;;;;9.60;4.20;;;;;;;22.75;100.00;93373.13;4953398;28;20091;-81
2023/09/03 09:39:14;;;;;;;7.00;3.90;;;;;;;22.92;100.00;93378.16;4979571;28;20037;-82
2023/09/03 09:41:39;;;;;;;8.18;4.30;;;;;;;22.91;100.00;93376.59;4962586;28;20121;-83
2023/09/03 09:44:11;;;;;;;6.68;4.20;;;;;;;22.83;100.00;93370.31;4978641;28;20039;-82
2023/09/03 09:46:38;;;;;;;6.75;4.43;;;;;;;22.88;100.00;93363.94;4976554;28;20247;-84
2023/09/03 09:49:03;;;;;;;7.55;3.90;;;;;;;22.99;100.00;93367.69;4970152;28;20125;-81
2023/09/03 09:51:30;;;;;;;5.80;3.70;;;;;;;23.05;100.00;93368.97;4994392;28;20069;-83
2023/09/03 09:53:58;;;;;;;6.80;4.28;;;;;;;23.35;100.00;93357.09;4981249;28;20058;-82
2023/09/03 09:56:31;;;;;;;5.68;3.70;;;;;;;23.43;100.00;93361.50;4994359;28;20527;-83
2023/09/03 09:58:58;;;;;;;6.43;3.90;;;;;;;23.65;100.00;93365.47;4998598;28;20034;-83
2023/09/03 10:01:26;;;;;;;7.35;3.78;;;;;;;23.76;100.00;93361.16;4999916;28;20030;-83
2023/09/03 10:03:52;;;;;;;6.95;4.07;;;;;;;23.97;100.00;93371.56;4996813;28;20053;-82
2023/09/03 10:06:20;;;;;;;6.07;3.90;;;;;;;24.22;100.00;93369.41;4996008;28;20038;-82
2023/09/03 10:08:47;;;;;;;6.68;3.58;;;;;;;24.48;100.00;93368.06;4978654;28;20137;-82
2023/09/03 10:11:13;;;;;;;8.30;3.70;;;;;;;24.73;100.00;93372.00;4996116;28;20030;-82
2023/09/03 10:13:41;;;;;;;8.43;3.95;;;;;;;24.88;100.00;93358.88;4996612;28;20125;-83
2023/09/03 10:16:08;;;;;;;6.85;3.75;;;;;;;24.98;100.00;93355.63;4995922;28;20109;-84
2023/09/03 10:18:44;;;;;;;6.18;3.42;;;;;;;24.69;100.00;93357.78;4996839;28;20043;-83
2023/09/03 10:21:20;;;;;;;5.63;3.38;;;;;;;24.99;100.00;93346.44;4981591;28;20035;-85
2023/09/03 10:23:50;;;;;;;7.20;3.13;;;;;;;25.10;100.00;93339.38;4993879;28;20034;-84
2023/09/03 10:26:24;;;;;;;7.07;4.10;;;;;;;24.99;100.00;93333.06;4982759;28;20030;-84
2023/09/03 10:28:55;;;;;;;5.60;2.95;;;;;;;25.14;100.00;93342.91;5000585;28;20045;-81
2023/09/03 10:31:23;;;;;;;6.83;3.20;;;;;;;25.40;100.00;93341.44;4998828;28;20046;-81
2023/09/03 10:33:49;;;;;;;6.47;3.30;;;;;;;25.72;100.00;93349.97;4985420;28;20030;-83
2023/09/03 10:36:17;;;;;;;7.00;3.05;;;;;;;25.50;100.00;93350.78;4974074;28;20140;-83
2023/09/03 10:38:46;;;;;;;7.93;3.40;;;;;;;25.29;100.00;93345.88;4953743;28;20026;-83
2023/09/03 10:41:23;;;;;;;6.32;3.72;;;;;;;25.03;100.00;93338.50;4993090;28;20169;-84
2023/09/03 10:43:53;;;;;;;6.55;3.20;;;;;;;24.64;100.00;93323.25;4981987;28;20134;-84
2023/09/03 10:46:25;;;;;;;7.28;3.45;;;;;;;24.89;100.00;93334.44;4988538;28;20104;-83
2023/09/03 10:48:57;;;;;;;5.82;3.88;;;;;;;25.21;100.00;93328.09;4999888;28;20047;-82
2023/09/03 10:51:32;;;;;;;6.25;3.58;;;;;;;25.24;100.00;93332.75;4978600;28;20053;-84
2023/09/03 10:54:14;;;;;;;5.68;3.45;;;;;;;25.38;100.00;93327.63;4979443;28;20038;-83
2023/09/03 10:57:05;;;;;;;7.18;3.83;;;;;;;25.25;100.00;93332.38;4966263;28;20049;-83
2023/09/03 11:00:04;;;;;;;8.70;3.85;;;;;;;24.52;100.00;93334.13;4990830;28;20037;-83
2023/09/03 11:02:30;;;;;;;6.60;3.40;;;;;;;24.82;100.00;93333.53;4966847;28;20365;-83
2023/09/03 11:05:21;;;;;;;9.27;5.13;;;;;;;24.99;100.00;93333.06;4976770;28;20042;-85
2023/09/03 11:07:49;;;;;;;7.05;3.60;;;;;;;24.59;100.00;93341.50;4990438;28;20031;-86
2023/09/03 11:10:21;;;;;;;5.72;3.63;;;;;;;24.48;100.00;93338.63;4955840;28;20030;-82
2023/09/03 11:12:49;;;;;;;5.72;3.50;;;;;;;24.50;100.00;93339.84;4995498;28;20034;-84
2023/09/03 11:15:15;;;;;;;5.60;3.17;;;;;;;24.54;100.00;93333.75;4988765;28;20121;-83
2023/09/03 11:17:48;;;;;;;10.30;5.57;;;;;;;24.65;100.00;93324.81;4973789;28;20042;-84
2023/09/03 11:20:30;;;;;;;7.28;3.88;;;;;;;24.29;100.00;93331.34;4977744;28;20034;-85
2023/09/03 11:23:01;;;;;;;8.32;4.43;;;;;;;24.50;100.00;93328.34;4992393;28;20042;-85
2023/09/03 11:25:46;;;;;;;6.40;4.10;;;;;;;24.55;100.00;93316.59;4990647;28;20088;-82
2023/09/03 11:28:12;;;;;;;7.85;3.60;;;;;;;24.36;100.00;93331.47;4988134;28;20101;-85
2023/09/03 11:30:45;;;;;;;7.15;3.40;;;;;;;24.46;100.00;93327.47;4993373;28;20114;-85
2023/09/03 11:33:27;;;;;;;6.15;3.75;;;;;;;24.37;100.00;93330.38;4993073;28;20034;-84
2023/09/03 11:35:53;;;;;;;8.60;3.53;;;;;;;24.37;100.00;93321.56;4991383;28;20042;-84
2023/09/03 11:38:23;;;;;;;6.15;3.42;;;;;;;24.43;100.00;93328.16;4993223;28;20065;-83
2023/09/03 11:40:54;;;;;;;6.40;3.38;;;;;;;24.52;100.00;93320.75;4962120;28;20069;-84